Time;durP1;ratioP1;P1;durP2;ratioP2;P2;SDS_P1;SDS_P2;PMS_P1;PMS_P2;Temp;Humidity;BMP_temperature;BMP_pressure;BME280_temperature;BME280_humidity;BME280_pressure;Samples;Min_cycle;Max_cycle;Signal;HPM_P1;HPM_P2
2023/10/12 00:02:22;;;;;;;9.85;4.15;;;19.10;99.90;;;-141.84;56.75;21222.53;4908777;29;20310;-62
2023/10/12 00:04:59;;;;;;;8.32;4.03;;;19.10;99.90;;;-141.84;57.06;21222.53;4900747;29;20265;-64
2023/10/12 00:07:34;;;;;;;10.15;3.67;;;19.10;99.90;;;-141.84;56.68;21230.66;4908647;29;20238;-63
2023/10/12 00:10:21;;;;;;;7.05;4.00;;;19.10;99.90;;;-141.84;56.93;21228.63;4905691;29;20252;-63
2023/10/12 00:12:53;;;;;;;10.05;4.15;;;19.20;99.90;;;-141.84;55.86;21285.53;4881816;29;20231;-64
2023/10/12 00:15:28;;;;;;;8.10;4.10;;;19.20;99.90;;;-141.84;56.44;21277.41;4889531;29;20244;-63
2023/10/12 00:18:03;;;;;;;9.35;3.78;;;19.20;99.90;;;-141.84;55.80;21285.53;4889273;29;20660;-63
2023/10/12 00:20:37;;;;;;;9.63;4.45;;;19.30;99.90;;;-141.84;55.61;21269.28;4888965;29;20217;-64
2023/10/12 00:23:10;;;;;;;10.45;3.88;;;19.30;99.90;;;-141.84;56.67;21244.88;4881950;29;20235;-64
2023/10/12 00:25:47;;;;;;;6.47;3.70;;;19.30;99.90;;;-141.84;57.43;21208.28;4888946;29;20230;-64
2023/10/12 00:28:20;;;;;;;10.00;4.07;;;19.10;99.90;;;-141.84;57.50;21173.72;4897673;29;20314;-63
2023/10/12 00:30:52;;;;;;;10.48;4.47;;;19.00;99.90;;;-141.84;57.59;21208.28;4900239;29;20238;-63
2023/10/12 00:33:21;;;;;;;7.75;4.07;;;19.00;99.90;;;-141.84;58.07;21181.84;4907991;29;20313;-63
2023/10/12 00:35:50;;;;;;;11.18;4.30;;;18.90;99.90;;;-141.84;58.38;21161.53;4907605;29;20257;-64
2023/10/12 00:38:23;;;;;;;7.85;3.95;;;18.80;99.90;;;-141.84;58.27;21116.78;4908241;29;20313;-63
2023/10/12 00:40:57;;;;;;;9.10;3.88;;;18.80;99.90;;;-141.84;59.14;21112.72;4899466;29;20788;-63
2023/10/12 00:43:37;;;;;;;6.68;3.75;;;18.70;99.90;;;-141.84;59.74;21070.03;4907470;29;20753;-63
2023/10/12 00:46:20;;;;;;;10.15;4.68;;;18.70;99.90;;;-141.84;59.39;21118.84;4889219;29;20329;-63
2023/10/12 00:49:13;;;;;;;7.88;4.20;;;18.60;99.90;;;-141.84;59.72;21110.69;4880114;29;20770;-63
2023/10/12 00:51:40;;;;;;;11.52;4.65;;;18.60;99.90;;;-141.84;58.57;21139.16;4888671;29;20223;-63
2023/10/12 00:54:10;;;;;;;6.95;3.92;;;18.60;99.90;;;-141.84;59.71;21082.25;4888917;29;20241;-64
2023/10/12 00:56:43;;;;;;;11.05;4.28;;;18.60;99.90;;;-141.84;60.26;21061.91;4893816;29;20305;-64
2023/10/12 00:59:15;;;;;;;10.55;4.00;;;18.50;99.90;;;-141.84;60.40;21059.88;4906280;29;20224;-63
2023/10/12 01:01:43;;;;;;;8.27;3.97;;;18.40;99.90;;;-141.84;60.14;21084.28;4907128;29;20234;-64
2023/10/12 01:04:15;;;;;;;9.43;3.90;;;18.40;99.90;;;-141.84;60.45;21045.63;4907000;29;20238;-64
2023/10/12 01:06:47;;;;;;;9.13;3.58;;;18.40;99.90;;;-141.84;59.57;21072.06;4901777;29;20234;-63
2023/10/12 01:09:21;;;;;;;9.05;3.83;;;18.60;99.90;;;-141.84;59.80;21065.97;4886981;29;20694;-63
2023/10/12 01:11:59;;;;;;;11.25;4.20;;;18.50;99.90;;;-141.84;59.92;21057.84;4888403;29;20211;-63
2023/10/12 01:14:28;;;;;;;7.57;3.90;;;18.40;99.90;;;-141.84;59.03;21147.28;4889050;29;20250;-64
2023/10/12 01:16:58;;;;;;;6.75;3.63;;;18.50;99.90;;;-141.84;59.00;21072.06;4880451;29;20269;-63
2023/10/12 01:19:31;;;;;;;10.60;3.75;;;18.50;99.90;;;-141.84;58.68;21135.09;4887818;29;20650;-63
2023/10/12 01:22:07;;;;;;;6.72;3.92;;;18.50;99.90;;;-141.84;59.16;21102.56;4888063;29;20622;-63
2023/10/12 01:24:43;;;;;;;13.32;4.20;;;18.50;99.90;;;-141.84;57.95;21161.53;4888378;29;20751;-63
2023/10/12 01:27:15;;;;;;;5.72;3.58;;;18.60;99.90;;;-141.84;58.45;21131.03;4883625;29;20268;-63
2023/10/12 01:29:43;;;;;;;7.30;3.70;;;18.70;99.90;;;-141.84;58.67;21098.50;4869514;29;20231;-62
2023/10/12 01:32:27;;;;;;;8.25;3.60;;;18.60;99.90;;;-141.84;59.01;21110.69;4870246;29;20251;-63
2023/10/12 01:35:04;;;;;;;10.30;3.92;;;18.60;99.90;;;-141.84;59.05;21084.28;4861376;29;20238;-63
2023/10/12 01:37:47;;;;;;;8.40;3.97;;;18.60;99.90;;;-141.84;58.81;21110.69;4869544;29;20642;-63
2023/10/12 01:40:21;;;;;;;7.43;3.80;;;18.50;99.90;;;-141.84;59.00;21102.56;4868920;29;20715;-63
2023/10/12 01:42:52;;;;;;;8.15;3.90;;;18.50;99.90;;;-141.84;58.58;21112.72;4861498;29;20253;-63
2023/10/12 01:45:32;;;;;;;10.93;4.50;;;18.60;99.90;;;-141.84;58.68;21147.28;4883803;29;20283;-63
2023/10/12 01:48:07;;;;;;;12.15;4.03;;;18.60;99.90;;;-141.84;58.18;21196.09;4887772;29;20266;-64
2023/10/12 01:50:37;;;;;;;9.98;3.55;;;18.60;99.90;;;-141.84;58.02;21169.66;4887403;29;20229;-64
2023/10/12 01:53:22;;;;;;;7.70;3.90;;;18.70;99.90;;;-141.84;58.44;21131.03;4880557;29;20219;-64
2023/10/12 01:55:52;;;;;;;8.43;3.70;;;18.70;99.90;;;-141.84;59.03;21078.16;4887345;29;20655;-63
2023/10/12 01:58:23;;;;;;;11.18;4.30;;;18.60;99.90;;;-141.84;59.17;21106.63;4906487;29;20237;-63
2023/10/12 02:00:52;;;;;;;6.80;4.15;;;18.60;99.90;;;-141.84;59.18;21104.59;4898587;29;20772;-63
2023/10/12 02:03:31;;;;;;;8.60;4.53;;;18.60;99.90;;;-141.84;58.46;21110.69;4898040;29;20244;-63
2023/10/12 02:05:59;;;;;;;11.57;3.90;;;18.70;99.90;;;-141.84;58.33;21171.69;4887195;29;20278;-63
2023/10/12 02:08:39;;;;;;;8.27;4.00;;;18.70;99.90;;;-141.84;58.51;21124.94;4887887;29;20211;-64
2023/10/12 02:11:11;;;;;;;11.10;4.07;;;18.70;99.90;;;-141.84;58.70;21163.56;4879157;29;20258;-63
2023/10/12 02:13:41;;;;;;;9.35;3.85;;;18.60;99.90;;;-141.84;58.70;21169.66;4887543;29;20367;-63
2023/10/12 02:16:12;;;;;;;10.52;4.47;;;18.60;99.90;;;-141.84;59.13;21086.31;4887166;29;20309;-63
2023/10/12 02:18:43;;;;;;;11.75;4.07;;;18.60;99.90;;;-141.84;58.11;21141.19;4887236;29;20298;-64
2023/10/12 02:21:13;;;;;;;7.10;3.92;;;18.70;99.90;;;-141.84;59.02;21118.84;4883024;29;20266;-64
2023/10/12 02:24:11;;;;;;;7.85;4.05;;;18.70;99.90;;;-141.84;59.16;21145.25;4884936;29;20218;-64
2023/10/12 02:26:51;;;;;;;12.80;4.70;;;18.60;99.90;;;-141.84;58.63;21124.94;4886020;29;20665;-63
2023/10/12 02:29:20;;;;;;;9.25;4.30;;;18.60;99.90;;;-141.84;58.79;21135.09;4903945;29;20220;-64
2023/10/12 02:32:05;;;;;;;6.93;4.03;;;18.60;99.90;;;-141.84;59.02;21110.69;4868443;29;20239;-64
2023/10/12 02:34:34;;;;;;;5.85;3.60;;;18.60;99.90;;;-141.84;59.37;21118.84;4868310;29;20807;-63
2023/10/12 02:37:16;;;;;;;9.50;4.53;;;18.60;99.90;;;-141.84;58.16;21175.75;4860276;29;20345;-64
2023/10/12 02:39:48;;;;;;;7.10;4.22;;;18.70;99.90;;;-141.84;58.82;21169.66;4868740;29;20251;-64
2023/10/12 02:42:18;;;;;;;7.45;4.10;;;18.70;99.90;;;-141.84;59.36;21161.53;4873980;29;20291;-63
2023/10/12 02:45:08;;;;;;;8.95;3.97;;;18.60;99.90;;;-141.84;59.27;21145.25;4884723;29;20567;-63
2023/10/12 02:47:40;;;;;;;9.75;3.92;;;18.70;99.90;;;-141.84;59.89;21051.75;4887136;29;20274;-64
2023/10/12 02:50:29;;;;;;;5.95;3.83;;;18.50;99.90;;;-141.84;60.82;21035.47;4868654;29;20212;-63
2023/10/12 02:53:08;;;;;;;8.98;4.43;;;18.40;99.90;;;-141.84;60.74;21061.91;4860818;29;20291;-63
2023/10/12 02:55:43;;;;;;;8.05;4.15;;;18.40;99.90;;;-141.84;60.66;21086.31;4874305;29;20242;-63
2023/10/12 02:58:20;;;;;;;6.35;3.47;;;18.40;99.90;;;-141.84;60.98;21090.38;4904966;29;20323;-63
2023/10/12 03:00:54;;;;;;;6.05;3.90;;;18.30;99.90;;;-141.84;61.40;21051.75;4883560;29;20770;-64
2023/10/12 03:03:33;;;;;;;9.05;4.40;;;18.30;99.90;;;-141.84;61.20;21031.41;4887424;29;20240;-63
2023/10/12 03:06:07;;;;;;;8.30;4.25;;;18.30;99.90;;;-141.84;61.27;21002.94;4886578;29;20234;-64
2023/10/12 03:09:00;;;;;;;8.95;4.07;;;18.30;99.90;;;-141.84;61.55;21033.44;4887122;29;20223;-63
2023/10/12 03:11:31;;;;;;;10.55;4.22;;;18.30;99.90;;;-141.84;60.59;21053.78;4886864;29;20722;-63
2023/10/12 03:14:01;;;;;;;6.75;3.67;;;18.30;99.90;;;-141.84;61.43;21053.78;4887571;29;20229;-64
2023/10/12 03:16:34;;;;;;;6.30;3.72;;;18.30;99.90;;;-141.84;60.96;21086.31;4887322;29;20321;-65
2023/10/12 03:19:17;;;;;;;10.95;4.00;;;18.30;99.90;;;-141.84;61.58;21007.00;4878757;29;20270;-64
2023/10/12 03:21:47;;;;;;;9.50;4.07;;;18.30;99.90;;;-141.84;60.96;21094.44;4887705;29;20614;-64
2023/10/12 03:24:17;;;;;;;9.55;3.80;;;18.30;99.90;;;-141.84;60.96;21043.59;4890583;29;20334;-64
2023/10/12 03:26:49;;;;;;;7.80;4.25;;;18.30;99.90;;;-141.84;60.82;21078.16;4889231;29;20209;-63
2023/10/12 03:29:20;;;;;;;5.88;3.60;;;18.10;99.90;;;-141.84;61.71;21021.25;4906963;29;20214;-64
2023/10/12 03:31:56;;;;;;;8.98;4.40;;;18.30;99.90;;;-141.84;61.89;21013.13;4908763;29;20676;-64
2023/10/12 03:34:36;;;;;;;8.70;4.20;;;18.30;99.90;;;-141.84;61.54;21011.09;4909014;29;20241;-65
2023/10/12 03:37:14;;;;;;;7.57;4.05;;;18.30;99.90;;;-141.84;62.34;20998.88;4901027;29;20240;-64
2023/10/12 03:39:59;;;;;;;10.07;4.63;;;18.20;99.90;;;-141.84;61.22;21025.31;4909022;29;20609;-64
2023/10/12 03:42:42;;;;;;;10.30;4.13;;;18.30;99.90;;;-141.84;61.24;21043.59;4909185;29;20230;-63
2023/10/12 03:45:24;;;;;;;11.98;4.05;;;18.30;99.90;;;-141.84;60.92;21070.03;4888579;29;20312;-64
2023/10/12 03:48:15;;;;;;;9.40;4.60;;;18.30;99.90;;;-141.84;61.41;21057.84;4890016;29;20242;-64
2023/10/12 03:51:17;;;;;;;9.70;4.15;;;18.30;99.90;;;-141.84;61.73;21047.69;4889824;29;20691;-63
2023/10/12 03:53:55;;;;;;;7.15;4.05;;;18.30;99.90;;;-141.84;62.26;21021.25;4889652;29;20578;-64
2023/10/12 03:56:28;;;;;;;9.82;4.45;;;18.30;99.90;;;-141.84;61.66;21025.31;4893640;29;20214;-65
2023/10/12 03:59:00;;;;;;;11.13;4.25;;;18.30;99.90;;;-141.84;61.97;21031.41;4900937;29;20531;-64
2023/10/12 04:01:30;;;;;;;10.18;4.50;;;18.30;99.90;;;-141.84;60.82;21076.13;4908772;29;20318;-63
2023/10/12 04:04:09;;;;;;;7.88;3.92;;;18.40;99.90;;;-141.84;61.33;21049.72;4897063;29;20235;-64
2023/10/12 04:07:15;;;;;;;8.57;3.97;;;18.40;99.90;;;-141.84;60.62;21055.81;4889427;29;20226;-64
2023/10/12 04:09:43;;;;;;;7.32;3.80;;;18.50;99.90;;;-141.84;61.43;21033.44;4889451;29;20226;-64
2023/10/12 04:12:18;;;;;;;7.18;4.25;;;18.40;99.90;;;-141.84;60.77;21082.25;4889294;29;20234;-63
2023/10/12 04:14:50;;;;;;;8.25;4.30;;;18.40;99.90;;;-141.84;61.67;21053.78;4887985;29;20246;-63
2023/10/12 04:17:41;;;;;;;5.82;3.80;;;18.40;99.90;;;-141.84;62.40;21002.94;4890291;29;20702;-63
2023/10/12 04:20:17;;;;;;;12.55;4.10;;;18.30;99.90;;;-141.84;62.52;21037.50;4887096;29;20231;-63
2023/10/12 04:25:46;;;;;;;10.73;4.80;;;18.30;99.90;;;-141.84;61.48;21023.28;4889050;29;20236;-63
2023/10/12 04:28:22;;;;;;;7.75;4.30;;;18.30;99.90;;;-141.84;61.27;21047.69;4896664;29;20313;-63
2023/10/12 04:31:32;;;;;;;8.13;4.43;;;18.40;99.90;;;-141.84;62.01;21047.69;4900747;29;20728;-64
2023/10/12 04:34:05;;;;;;;10.10;4.13;;;18.30;99.90;;;-141.84;62.02;21045.63;4907464;29;20234;-63
2023/10/12 04:36:44;;;;;;;7.05;3.92;;;18.30;99.90;;;-141.84;62.23;21053.78;4907878;29;20744;-63
2023/10/12 04:39:24;;;;;;;7.93;4.60;;;18.30;99.90;;;-141.84;62.27;21035.47;4907398;29;20301;-64
2023/10/12 04:42:04;;;;;;;9.75;4.90;;;18.30;99.90;;;-141.84;61.97;21017.19;4907694;29;20233;-64
2023/10/12 04:44:43;;;;;;;10.50;4.50;;;18.30;99.90;;;-141.84;61.58;21068.00;4898746;29;20301;-63
2023/10/12 04:47:19;;;;;;;10.63;4.50;;;18.30;99.90;;;-141.84;61.03;21096.47;4884508;29;20639;-64
2023/10/12 04:49:57;;;;;;;11.48;5.18;;;18.40;99.90;;;-141.84;61.69;21051.75;4888538;29;20248;-63
2023/10/12 04:52:39;;;;;;;7.72;4.00;;;18.40;99.90;;;-141.84;62.42;21035.47;4888667;29;20326;-63
2023/10/12 05:00:48;;;;;;;9.30;4.10;;;18.30;99.90;;;-141.84;62.96;21041.56;4892405;29;20229;-63
2023/10/12 05:03:33;;;;;;;8.13;4.40;;;18.20;99.90;;;-141.84;63.41;20984.66;4879491;29;20781;-63
2023/10/12 05:06:08;;;;;;;7.95;4.43;;;18.20;99.90;;;-141.84;63.73;21057.84;4888551;29;20234;-63
2023/10/12 05:08:40;;;;;;;11.13;4.47;;;18.20;99.90;;;-141.84;64.53;21019.22;4888566;29;20217;-63
2023/10/12 05:11:09;;;;;;;7.90;4.45;;;18.20;99.90;;;-141.84;65.60;20972.47;4880824;29;20223;-64
2023/10/12 05:13:43;;;;;;;10.52;4.85;;;18.10;99.90;;;-141.84;65.67;21021.25;4888497;29;20226;-65
2023/10/12 05:16:14;;;;;;;7.57;4.80;;;18.20;99.90;;;-141.84;66.49;20976.53;4888826;29;20233;-65
2023/10/12 05:18:47;;;;;;;10.82;4.80;;;18.10;99.90;;;-141.84;67.91;20970.41;4888113;29;20234;-64
2023/10/12 05:21:15;;;;;;;7.80;4.53;;;18.10;99.90;;;-141.84;69.92;20923.66;4887931;29;20286;-64
2023/10/12 05:23:43;;;;;;;11.48;5.20;;;18.00;99.90;;;-141.84;71.53;20866.75;4887992;29;20242;-63
2023/10/12 05:26:14;;;;;;;9.45;4.70;;;17.90;99.90;;;-141.84;74.00;20815.91;4891806;29;20290;-64
2023/10/12 05:28:57;;;;;;;8.02;4.65;;;17.60;99.90;;;-141.84;76.35;20756.97;4899200;29;20286;-64
2023/10/12 05:31:28;;;;;;;9.55;5.10;;;17.50;99.90;;;-141.84;78.61;20765.09;4906810;29;20273;-63
2023/10/12 05:34:20;;;;;;;8.02;4.93;;;17.30;99.90;;;-141.84;79.91;20702.09;4890044;29;20722;-63
2023/10/12 05:36:49;;;;;;;7.57;5.15;;;17.20;99.90;;;-141.84;81.89;20663.47;4880468;29;20254;-63
2023/10/12 05:39:17;;;;;;;8.35;6.03;;;17.00;99.90;;;-141.84;82.95;20643.13;4887732;29;20234;-63
2023/10/12 05:41:46;;;;;;;8.98;5.68;;;16.90;99.90;;;-141.84;84.13;20598.41;4887806;29;20238;-64
2023/10/12 05:44:15;;;;;;;10.30;6.95;;;16.80;99.90;;;-141.84;85.14;20600.44;4887422;29;20207;-64
2023/10/12 05:46:50;;;;;;;10.60;6.18;;;16.70;99.90;;;-141.84;85.86;20513.03;4887683;29;20239;-64
2023/10/12 05:49:23;;;;;;;8.85;6.50;;;16.60;99.90;;;-141.84;86.66;20450.03;4890832;29;20302;-63
2023/10/12 05:51:51;;;;;;;9.65;6.88;;;16.50;99.90;;;-141.84;87.22;20435.78;4887498;29;20684;-63
2023/10/12 05:54:20;;;;;;;9.13;6.10;;;16.50;99.90;;;-141.84;87.91;20393.09;4884836;29;20313;-64
2023/10/12 05:56:51;;;;;;;6.50;5.80;;;16.40;99.90;;;-141.84;88.55;20391.06;4874909;29;20202;-64
2023/10/12 05:59:20;;;;;;;8.13;5.50;;;16.40;99.90;;;-141.84;87.90;20393.09;4889542;29;20246;-64
2023/10/12 06:01:49;;;;;;;13.27;6.47;;;16.40;99.90;;;-141.84;87.34;20389.03;4887821;29;20657;-63
2023/10/12 06:04:19;;;;;;;9.25;6.10;;;16.50;99.90;;;-141.84;87.85;20401.22;4887293;29;20242;-63
2023/10/12 06:06:52;;;;;;;10.82;6.50;;;16.40;99.90;;;-141.84;87.69;20352.44;4879500;29;20238;-63
2023/10/12 06:09:23;;;;;;;8.23;5.80;;;16.40;99.90;;;-141.84;87.41;20358.56;4869131;29;20707;-62
2023/10/12 06:11:54;;;;;;;11.05;5.82;;;16.40;99.90;;;-141.84;87.87;20350.41;4876128;29;20236;-64
2023/10/12 06:14:23;;;;;;;13.73;6.97;;;16.40;99.90;;;-141.84;87.91;20368.72;4887905;29;20215;-64
2023/10/12 06:16:55;;;;;;;10.00;6.68;;;16.40;99.90;;;-141.84;88.13;20358.56;4879458;29;20818;-63
2023/10/12 06:19:26;;;;;;;12.52;6.38;;;16.40;99.90;;;-141.84;87.91;20309.75;4887399;29;20325;-63
2023/10/12 06:21:58;;;;;;;9.40;6.60;;;16.40;99.90;;;-141.84;88.61;20368.72;4888266;29;20265;-64
2023/10/12 06:24:34;;;;;;;10.43;6.30;;;16.40;99.90;;;-141.84;89.02;20328.06;4888181;29;20273;-64
2023/10/12 06:27:22;;;;;;;9.40;6.40;;;16.40;99.90;;;-141.84;89.89;20254.88;4877547;29;20228;-63
2023/10/12 06:29:53;;;;;;;10.38;6.75;;;16.30;99.90;;;-141.84;90.33;20299.59;4880319;29;20217;-64
2023/10/12 06:32:28;;;;;;;13.15;7.60;;;16.30;99.90;;;-141.84;90.16;20273.19;4884369;29;20239;-64
2023/10/12 06:35:12;;;;;;;10.82;7.93;;;16.20;99.90;;;-141.84;89.42;20305.69;4869735;29;20227;-65
2023/10/12 06:38:15;;;;;;;9.75;7.00;;;16.30;99.90;;;-141.84;89.99;20305.69;4871895;29;20233;-64
2023/10/12 06:41:00;;;;;;;13.63;7.65;;;16.30;99.90;;;-141.84;90.80;20275.22;4872010;29;20259;-65
2023/10/12 06:46:15;;;;;;;9.38;7.60;;;16.20;99.90;;;-141.84;91.65;20228.47;4878593;29;20720;-65
2023/10/12 06:48:52;;;;;;;12.40;7.80;;;16.20;99.90;;;-141.84;91.90;20250.81;4885676;29;20301;-64
2023/10/12 06:51:22;;;;;;;13.82;7.47;;;16.20;99.90;;;-141.84;91.71;20258.94;4875831;29;20333;-63
2023/10/12 06:53:53;;;;;;;12.45;8.13;;;16.20;99.90;;;-141.84;91.68;20246.75;4883864;29;20264;-65
2023/10/12 06:56:27;;;;;;;12.48;8.50;;;16.20;99.90;;;-141.84;92.17;20200.00;4883258;29;20615;-65
2023/10/12 07:01:53;;;;;;;10.05;8.15;;;16.20;99.90;;;-141.84;92.16;20232.53;4904558;29;20244;-64
2023/10/12 07:04:27;;;;;;;13.25;8.35;;;16.20;99.90;;;-141.84;92.24;20214.22;4909560;29;20815;-64
2023/10/12 07:06:56;;;;;;;16.50;10.65;;;16.30;99.90;;;-141.84;91.43;20234.56;4901514;29;20262;-65
2023/10/12 07:09:37;;;;;;;11.32;7.60;;;16.30;99.90;;;-141.84;89.52;20281.31;4910027;29;20244;-64
2023/10/12 07:12:08;;;;;;;12.73;7.97;;;16.40;99.90;;;-141.84;89.44;20258.94;4909752;29;20233;-64
2023/10/12 07:14:42;;;;;;;12.65;8.52;;;16.40;99.90;;;-141.84;90.27;20256.91;4909615;29;20210;-64
2023/10/12 07:17:11;;;;;;;12.70;7.90;;;16.40;99.90;;;-141.84;91.19;20254.88;4903557;29;20286;-65
2023/10/12 07:19:40;;;;;;;13.00;7.75;;;16.30;99.90;;;-141.84;91.58;20206.09;4892276;29;20270;-64
2023/10/12 07:22:15;;;;;;;11.10;7.82;;;16.30;99.90;;;-141.84;91.92;20228.47;4890388;29;20234;-65
2023/10/12 07:24:45;;;;;;;13.98;7.55;;;16.40;99.90;;;-141.84;91.89;20222.38;4890806;29;20238;-64
2023/10/12 07:27:18;;;;;;;10.02;7.70;;;16.40;99.90;;;-141.84;91.49;20232.53;4887201;29;20233;-65
2023/10/12 07:30:00;;;;;;;12.93;7.97;;;16.30;99.90;;;-141.84;91.74;20246.75;4890877;29;20210;-65
2023/10/12 07:32:31;;;;;;;9.57;7.00;;;16.40;99.90;;;-141.84;92.10;20183.75;4890539;29;20202;-66
2023/10/12 07:35:07;;;;;;;12.25;7.88;;;16.40;99.90;;;-141.84;92.45;20197.97;4882572;29;20253;-64
2023/10/12 07:37:41;;;;;;;11.48;7.95;;;16.40;99.90;;;-141.84;93.16;20181.72;4890580;29;20229;-63
2023/10/12 07:40:19;;;;;;;10.70;8.20;;;16.30;99.90;;;-141.84;93.49;20163.41;4892995;29;20307;-65
2023/10/12 07:42:47;;;;;;;12.82;8.15;;;16.30;99.90;;;-141.84;93.64;20195.94;4905358;29;20233;-64
2023/10/12 07:45:17;;;;;;;14.75;8.55;;;16.30;99.90;;;-141.84;91.94;20222.38;4894320;29;20231;-65
2023/10/12 07:47:58;;;;;;;11.85;7.95;;;16.40;99.90;;;-141.84;91.89;20204.06;4891320;29;20564;-64
2023/10/12 07:50:30;;;;;;;12.50;8.05;;;16.40;99.90;;;-141.84;92.44;20197.97;4890004;29;20290;-65
2023/10/12 07:53:21;;;;;;;11.40;7.63;;;16.40;99.90;;;-141.84;92.13;20175.63;4879797;29;20370;-63
2023/10/12 07:56:00;;;;;;;15.02;8.18;;;16.40;99.90;;;-141.84;92.00;20220.34;4890096;29;20354;-64
2023/10/12 07:58:29;;;;;;;13.18;7.72;;;16.40;99.90;;;-141.84;89.92;20265.03;4890080;29;20587;-64
2023/10/12 08:01:19;;;;;;;11.68;7.53;;;16.50;99.90;;;-141.84;90.65;20220.34;4900853;29;20324;-63
2023/10/12 08:03:50;;;;;;;10.40;7.18;;;16.50;99.90;;;-141.84;90.40;20236.59;4908733;29;20255;-65
2023/10/12 08:06:27;;;;;;;9.95;7.03;;;16.50;99.90;;;-141.84;90.98;20210.16;4908272;29;20226;-65
2023/10/12 08:09:02;;;;;;;13.93;7.63;;;16.50;99.90;;;-141.84;90.14;20269.13;4899738;29;20237;-65
2023/10/12 08:11:34;;;;;;;12.23;7.78;;;16.60;99.90;;;-141.84;90.22;20226.44;4909003;29;20214;-64
2023/10/12 08:14:19;;;;;;;13.30;7.57;;;16.50;99.90;;;-141.84;89.88;20244.72;4908904;29;20335;-64
2023/10/12 08:17:24;;;;;;;10.15;7.45;;;16.60;99.90;;;-141.84;89.29;20214.22;4900719;29;20617;-63
2023/10/12 08:19:42;;;;;;;12.32;7.82;;;16.60;99.90;;;-141.84;89.53;20216.25;4893007;29;20338;-64
2023/10/12 08:22:17;;;;;;;10.45;6.95;;;16.50;99.90;;;-141.84;89.74;20206.09;4889149;29;20737;-65
2023/10/12 08:24:46;;;;;;;9.85;6.65;;;16.50;99.90;;;-141.84;88.52;20218.31;4886144;29;20265;-64
2023/10/12 08:27:18;;;;;;;9.68;7.20;;;16.40;99.90;;;-141.84;89.25;20248.78;4886324;29;20241;-66
2023/10/12 08:30:11;;;;;;;12.73;7.65;;;16.50;99.90;;;-141.84;89.43;20232.53;4908541;29;20241;-64
2023/10/12 08:32:55;;;;;;;12.15;7.50;;;16.50;99.90;;;-141.84;89.13;20210.16;4908183;29;20207;-65
2023/10/12 08:35:55;;;;;;;13.05;7.65;;;16.50;99.90;;;-141.84;89.23;20202.03;4908829;29;20202;-64
2023/10/12 08:38:33;;;;;;;9.95;6.70;;;16.50;99.90;;;-141.84;89.19;20216.25;4907913;29;20610;-64
2023/10/12 08:41:20;;;;;;;11.00;7.32;;;16.50;99.90;;;-141.84;89.35;20191.88;4900163;29;20257;-65
2023/10/12 08:43:53;;;;;;;12.45;6.88;;;16.50;99.90;;;-141.84;89.54;20236.59;4905199;29;20227;-64
2023/10/12 08:52:17;;;;;;;10.60;7.30;;;16.60;99.90;;;-141.84;87.62;20285.38;4888250;29;20241;-64
2023/10/12 08:54:54;;;;;;;11.75;7.28;;;16.70;99.90;;;-141.84;87.72;20242.69;4887535;29;20238;-63
2023/10/12 08:57:35;;;;;;;11.57;7.80;;;16.80;99.90;;;-141.84;86.13;20263.00;4899643;29;20269;-65
2023/10/12 09:00:39;;;;;;;9.02;6.95;;;16.80;99.90;;;-141.84;85.72;20285.38;4907578;29;20601;-64
2023/10/12 09:03:24;;;;;;;10.98;7.05;;;16.80;99.90;;;-141.84;86.34;20319.94;4899279;29;20424;-64
2023/10/12 09:05:54;;;;;;;10.43;6.93;;;16.80;99.90;;;-141.84;85.86;20295.53;4907452;29;20230;-65
2023/10/12 09:08:46;;;;;;;9.38;6.50;;;16.80;99.90;;;-141.84;85.84;20289.44;4907683;29;20229;-65
2023/10/12 09:11:13;;;;;;;6.70;5.72;;;16.80;99.90;;;-141.84;86.46;20289.44;4907552;29;20377;-64
2023/10/12 09:13:47;;;;;;;7.82;6.65;;;16.70;99.90;;;-141.84;86.81;20285.38;4907935;29;20234;-64
2023/10/12 09:16:17;;;;;;;12.60;6.85;;;16.80;99.90;;;-141.84;87.18;20244.72;4907580;29;20756;-64
2023/10/12 09:18:46;;;;;;;9.27;6.22;;;16.70;99.90;;;-141.84;86.33;20250.81;4891043;29;20310;-65
2023/10/12 09:21:27;;;;;;;10.50;7.18;;;16.60;99.90;;;-141.84;87.46;20224.41;4887810;29;20732;-64
2023/10/12 09:24:05;;;;;;;11.77;6.60;;;16.60;99.90;;;-141.84;88.83;20236.59;4888511;29;20299;-65
2023/10/12 09:26:37;;;;;;;9.13;6.93;;;16.60;99.90;;;-141.84;89.08;20246.75;4888318;29;20662;-64
2023/10/12 09:29:20;;;;;;;8.45;7.50;;;16.60;99.90;;;-141.84;88.37;20212.19;4895356;29;20416;-64
2023/10/12 09:37:44;;;;;;;10.55;7.13;;;16.60;99.90;;;-141.84;88.68;20283.34;5032028;28;20225;-64
2023/10/12 09:40:29;;;;;;;9.90;6.45;;;16.60;99.90;;;-141.84;88.46;20238.63;5039446;28;20225;-65
2023/10/12 09:43:01;;;;;;;10.20;6.15;;;16.60;99.90;;;-141.84;89.13;20214.22;5031577;28;20286;-64
2023/10/12 09:45:36;;;;;;;9.27;7.38;;;16.70;99.90;;;-141.84;90.02;20244.72;5039168;28;20257;-64
2023/10/12 09:48:12;;;;;;;9.60;7.50;;;16.70;99.90;;;-141.84;89.96;20214.22;5039416;28;20229;-64
2023/10/12 09:50:44;;;;;;;9.80;6.53;;;16.60;99.90;;;-141.84;90.30;20206.09;5039641;28;20209;-64
2023/10/12 09:53:24;;;;;;;7.95;6.75;;;16.70;99.90;;;-141.84;90.92;20175.63;5034996;28;20221;-65
2023/10/12 09:56:03;;;;;;;14.45;6.80;;;16.60;99.90;;;-141.84;91.26;20208.13;5038683;28;20311;-65
2023/10/12 09:58:43;;;;;;;8.48;6.38;;;16.70;99.90;;;-141.84;91.66;20185.78;5039063;28;20742;-64
2023/10/12 10:01:16;;;;;;;9.23;7.20;;;16.70;99.90;;;-141.84;91.69;20242.69;5033590;28;20228;-65
2023/10/12 10:03:48;;;;;;;9.38;6.82;;;16.80;99.90;;;-141.84;91.90;20204.06;5039166;28;20244;-64
2023/10/12 10:06:31;;;;;;;10.65;8.75;;;16.70;99.90;;;-141.84;91.80;20185.78;5039535;28;20324;-64
2023/10/12 10:09:23;;;;;;;11.70;7.93;;;16.70;99.90;;;-141.84;92.03;20189.84;5031162;28;20263;-65
2023/10/12 10:12:00;;;;;;;10.10;7.38;;;16.70;99.90;;;-141.84;91.88;20230.50;5038531;28;20241;-58
2023/10/12 10:14:34;;;;;;;10.07;7.55;;;16.70;99.90;;;-141.84;92.10;20163.41;5039623;28;20229;-58
2023/10/12 10:17:02;;;;;;;9.80;7.22;;;16.70;99.90;;;-141.84;92.36;20185.78;5031932;28;20233;-58
2023/10/12 10:19:31;;;;;;;12.23;6.57;;;16.70;99.90;;;-141.84;92.43;20195.94;5038936;28;20259;-59
2023/10/12 10:22:10;;;;;;;7.90;6.43;;;16.70;99.90;;;-141.84;90.65;20195.94;5038964;28;20312;-57
2023/10/12 10:24:47;;;;;;;9.50;7.60;;;16.70;99.90;;;-141.84;90.79;20177.66;5038794;28;20236;-58
2023/10/12 10:27:18;;;;;;;14.02;8.30;;;16.80;99.90;;;-141.84;90.88;20208.13;5038280;28;20233;-59
2023/10/12 10:29:53;;;;;;;9.50;7.57;;;16.70;99.90;;;-141.84;89.67;20224.41;5038499;28;20590;-58
2023/10/12 10:32:31;;;;;;;10.35;7.30;;;16.70;99.90;;;-141.84;89.32;20218.31;5039335;28;20304;-58
2023/10/12 10:35:04;;;;;;;9.23;5.82;;;16.70;99.90;;;-141.84;89.35;20224.41;5030272;28;20229;-64
2023/10/12 10:37:58;;;;;;;7.78;6.25;;;16.70;99.90;;;-141.84;89.65;20191.88;5027580;28;20797;-64
2023/10/12 10:40:43;;;;;;;10.35;5.57;;;16.60;99.90;;;-141.84;89.83;20175.63;5022703;28;20222;-64
2023/10/12 10:43:15;;;;;;;8.50;5.20;;;16.60;99.90;;;-141.84;89.44;20200.00;5034008;28;20578;-64
2023/10/12 10:45:56;;;;;;;9.60;5.97;;;16.60;99.90;;;-141.84;89.31;20244.72;5028397;28;20324;-64
2023/10/12 10:48:27;;;;;;;8.50;4.78;;;16.50;99.90;;;-141.84;89.44;20220.34;5024984;28;20313;-64
2023/10/12 10:51:19;;;;;;;5.97;5.07;;;16.50;99.90;;;-141.84;88.54;20191.88;5024754;28;20672;-65
2023/10/12 10:53:54;;;;;;;9.95;5.60;;;16.50;99.90;;;-141.84;89.32;20177.66;5025327;28;20229;-64
2023/10/12 10:56:37;;;;;;;6.55;4.85;;;16.50;99.90;;;-141.84;89.10;20220.34;5025142;28;20297;-63
2023/10/12 10:59:06;;;;;;;9.30;5.38;;;16.50;99.90;;;-141.84;89.59;20171.56;4997765;28;20809;-64
2023/10/12 11:01:35;;;;;;;7.03;5.15;;;16.40;99.90;;;-141.84;87.92;20244.72;5022056;28;20331;-64
2023/10/12 11:04:08;;;;;;;9.38;4.93;;;16.50;99.90;;;-141.84;88.11;20218.31;5024723;28;20705;-64
2023/10/12 11:06:39;;;;;;;12.25;5.57;;;16.50;99.90;;;-141.84;88.88;20187.81;5024800;28;20575;-66